createdAt,value
2019-02-04T00:00:01.185Z,11.63
2019-02-04T00:02:41.612Z,13.47
2019-02-04T00:05:21.989Z,13.30
2019-02-04T00:08:02.866Z,12.83
2019-02-04T00:10:43.685Z,13.70
2019-02-04T00:13:24.401Z,12.30
2019-02-04T00:16:05.098Z,11.93
2019-02-04T00:18:45.829Z,12.90
2019-02-04T00:21:26.888Z,13.23
2019-02-04T00:24:07.588Z,13.00
2019-02-04T00:26:51.492Z,13.77
2019-02-04T00:32:16.225Z,12.70
2019-02-04T00:34:57.689Z,12.83
2019-02-04T00:37:38.325Z,13.23
2019-02-04T00:40:18.957Z,14.03
2019-02-04T00:42:59.681Z,12.10
2019-02-04T00:45:40.002Z,12.60
2019-02-04T00:48:20.828Z,12.70
2019-02-04T00:51:01.678Z,12.33
2019-02-04T00:53:42.326Z,13.27
2019-02-04T00:56:11.600Z,12.77
2019-02-04T00:58:51.944Z,11.83
2019-02-04T01:01:32.806Z,12.70
2019-02-04T01:04:13.457Z,11.30
2019-02-04T01:06:54.161Z,12.30
2019-02-04T01:09:34.947Z,12.93
2019-02-04T01:12:16.127Z,12.90
2019-02-04T01:17:46.032Z,13.27
2019-02-04T01:20:26.753Z,12.30
2019-02-04T01:23:07.530Z,13.73
2019-02-04T01:28:37.302Z,12.50
2019-02-04T01:31:21.296Z,12.43
2019-02-04T01:36:47.174Z,13.50
2019-02-04T01:42:10.185Z,12.10
2019-02-04T01:44:50.825Z,13.00
2019-02-04T01:47:31.594Z,14.57
2019-02-04T01:50:11.982Z,14.27
2019-02-04T01:52:52.701Z,13.10
2019-02-04T01:55:33.686Z,13.20
2019-02-04T01:58:14.245Z,13.53
2019-02-04T02:00:55.002Z,13.37
2019-02-04T02:03:36.022Z,13.20
2019-02-04T02:06:16.862Z,13.27
2019-02-04T02:08:57.534Z,12.80
2019-02-04T02:11:38.184Z,12.30
2019-02-04T02:14:07.213Z,12.63
2019-02-04T02:16:55.508Z,12.40
2019-02-04T02:19:43.629Z,12.33
2019-02-04T02:22:31.006Z,11.93
2019-02-04T02:25:19.126Z,13.00
2019-02-04T02:28:07.513Z,13.30
2019-02-04T02:30:55.629Z,12.90
2019-02-04T02:33:43.768Z,14.00
2019-02-04T02:36:31.889Z,12.93
2019-02-04T02:39:20.028Z,12.97
2019-02-04T02:42:09.878Z,12.30
2019-02-04T02:44:58.017Z,11.87
2019-02-04T02:47:46.166Z,12.30
2019-02-04T02:50:34.281Z,13.00
2019-02-04T02:53:22.332Z,12.57
2019-02-04T02:56:10.568Z,12.03
2019-02-04T02:58:54.665Z,11.93
2019-02-04T03:04:22.197Z,20.03
2019-02-04T03:12:38.193Z,10.87
2019-02-04T03:15:19.877Z,12.00
2019-02-04T03:17:59.109Z,11.70
2019-02-04T03:23:43.216Z,11.97
2019-02-04T03:26:31.404Z,11.40
2019-02-04T03:29:19.536Z,11.43
2019-02-04T03:32:07.843Z,11.50
2019-02-04T03:34:57.684Z,12.17
2019-02-04T03:37:45.804Z,11.37
2019-02-04T03:40:34.341Z,11.03
2019-02-04T03:43:22.581Z,10.20
2019-02-04T03:46:10.685Z,10.60
2019-02-04T03:48:58.817Z,11.70
2019-02-04T03:51:46.932Z,11.13
2019-02-04T03:54:35.060Z,10.50
2019-02-04T03:57:23.185Z,10.57
2019-02-04T04:00:03.693Z,10.13
2019-02-04T04:02:44.285Z,10.03
2019-02-04T04:05:24.957Z,11.23
2019-02-04T04:08:05.350Z,9.80
2019-02-04T04:10:45.917Z,9.67
2019-02-04T04:13:26.661Z,10.53
2019-02-04T04:16:07.386Z,11.23
2019-02-04T04:18:47.814Z,10.77
2019-02-04T04:21:28.689Z,10.53
2019-02-04T04:24:09.456Z,11.90
2019-02-04T04:26:50.276Z,12.77
2019-02-04T04:29:31.097Z,12.73
2019-02-04T04:32:11.931Z,12.83
2019-02-04T04:34:52.772Z,13.03
2019-02-04T04:37:33.230Z,12.20
2019-02-04T04:40:13.737Z,11.63
2019-02-04T04:42:54.729Z,11.30
2019-02-04T04:45:35.541Z,11.53
2019-02-04T04:48:26.092Z,10.37
2019-02-04T04:50:58.674Z,10.83
2019-02-04T04:53:39.559Z,10.83
2019-02-04T04:56:20.906Z,9.80
2019-02-04T04:59:01.630Z,10.10
2019-02-04T05:01:42.153Z,11.60
2019-02-04T05:04:22.741Z,12.10
2019-02-04T05:07:05.174Z,10.53
2019-02-04T05:09:46.517Z,11.43
2019-02-04T05:15:20.986Z,13.77
2019-02-04T05:26:23.398Z,12.87
2019-02-04T05:34:32.785Z,14.07
2019-02-04T05:37:13.953Z,13.77
2019-02-04T05:39:54.639Z,11.87
2019-02-04T05:42:35.049Z,12.80
2019-02-04T05:45:16.037Z,13.23
2019-02-04T05:47:56.470Z,11.53
2019-02-04T05:50:36.806Z,11.77
2019-02-04T05:53:18.286Z,11.73
2019-02-04T05:58:41.324Z,11.90
2019-02-04T06:01:21.969Z,11.57
2019-02-04T06:04:02.558Z,12.37
2019-02-04T06:06:46.352Z,11.53
2019-02-04T06:09:27.149Z,12.03
2019-02-04T06:14:54.009Z,11.47
2019-02-04T06:17:35.237Z,11.60
2019-02-04T06:20:15.766Z,11.87
2019-02-04T06:22:56.281Z,10.87
2019-02-04T06:25:37.188Z,10.60
2019-02-04T06:28:18.098Z,10.13
2019-02-04T06:30:47.280Z,11.33
2019-02-04T06:33:35.400Z,10.30
2019-02-04T06:36:23.511Z,10.47
2019-02-04T06:39:13.365Z,16.60
2019-02-04T06:42:01.517Z,16.40
2019-02-04T06:44:49.640Z,13.73
2019-02-04T06:47:37.773Z,12.07
2019-02-04T06:50:25.889Z,13.13
2019-02-04T06:53:14.025Z,12.10
2019-02-04T06:56:02.148Z,12.97
2019-02-04T06:58:44.029Z,11.17
2019-02-04T07:01:24.451Z,11.40
2019-02-04T07:04:06.067Z,12.70
2019-02-04T07:06:47.267Z,11.97
2019-02-04T07:09:28.008Z,12.33
2019-02-04T07:14:54.266Z,10.30
2019-02-04T07:17:34.694Z,9.00
2019-02-04T07:20:15.338Z,7.00
2019-02-04T07:22:56.225Z,8.97
2019-02-04T07:25:37.301Z,8.33
2019-02-04T07:28:17.806Z,8.23
2019-02-04T07:30:58.525Z,7.73
2019-02-04T07:33:39.488Z,10.00
2019-02-04T07:36:20.192Z,10.63
2019-02-04T07:39:00.909Z,10.40
2019-02-04T07:41:42.181Z,8.30
2019-02-04T07:44:23.186Z,9.67
2019-02-04T07:49:52.996Z,10.50
2019-02-04T07:55:15.857Z,11.53
2019-02-04T08:00:41.572Z,10.30
2019-02-04T08:03:22.597Z,10.10
2019-02-04T08:06:05.107Z,10.20
2019-02-04T08:08:45.713Z,9.17
2019-02-04T08:14:16.037Z,12.60
2019-02-04T08:16:56.869Z,12.50
2019-02-04T08:22:24.866Z,11.77
2019-02-04T08:25:11.362Z,11.90
2019-02-04T08:27:57.803Z,10.40
2019-02-04T08:30:44.349Z,13.13
2019-02-04T08:33:27.427Z,10.60
2019-02-04T08:36:08.542Z,8.60
2019-02-04T08:41:38.797Z,7.20
2019-02-04T08:44:20.561Z,7.63
2019-02-04T08:55:22.498Z,9.77
2019-02-04T09:00:55.854Z,8.37
2019-02-04T09:06:22.089Z,8.77
2019-02-04T09:09:02.550Z,8.17
2019-02-04T09:14:29.071Z,7.70
2019-02-04T09:17:11.068Z,8.77
2019-02-04T09:19:52.542Z,8.20
2019-02-04T09:25:22.715Z,6.57
2019-02-04T09:28:04.095Z,7.07
2019-02-04T09:30:45.018Z,8.27
2019-02-04T09:36:07.289Z,7.30
2019-02-04T09:38:47.887Z,7.20
2019-02-04T09:41:28.265Z,7.83
2019-02-04T09:44:08.997Z,8.30
2019-02-04T09:49:55.465Z,7.97
2019-02-04T09:52:37.379Z,8.78
2019-02-04T09:55:18.574Z,8.18
2019-02-04T09:57:59.223Z,9.10
2019-02-04T10:00:39.950Z,9.05
2019-02-04T10:03:20.474Z,9.15
2019-02-04T10:06:01.268Z,9.90
2019-02-04T10:08:41.890Z,9.23
2019-02-04T10:11:22.276Z,9.55
2019-02-04T10:14:03.013Z,9.40
2019-02-04T10:16:43.667Z,8.88
2019-02-04T10:19:24.435Z,9.15
2019-02-04T10:22:05.262Z,10.43
2019-02-04T10:24:46.055Z,9.15
2019-02-04T10:27:26.721Z,9.60
2019-02-04T10:30:07.319Z,9.35
2019-02-04T10:32:47.774Z,9.65
2019-02-04T10:35:28.625Z,10.48
2019-02-04T10:38:09.123Z,9.13
2019-02-04T10:40:49.927Z,8.65
2019-02-04T10:43:30.695Z,9.23
2019-02-04T10:46:11.381Z,9.48
2019-02-04T10:48:52.213Z,8.20
2019-02-04T10:51:33.013Z,11.80
2019-02-04T10:54:14.010Z,9.90
2019-02-04T10:56:54.695Z,10.82
2019-02-04T10:59:35.512Z,10.72
2019-02-04T11:02:16.663Z,12.28
2019-02-04T11:04:57.549Z,11.57
2019-02-04T11:07:38.013Z,11.28
2019-02-04T11:13:00.701Z,9.93
2019-02-04T11:15:29.785Z,8.98
2019-02-04T11:18:19.700Z,8.75
2019-02-04T11:21:07.866Z,9.48
2019-02-04T11:23:56.009Z,9.30
2019-02-04T11:26:44.165Z,8.75
2019-02-04T11:29:32.385Z,9.63
2019-02-04T11:32:20.651Z,10.13
2019-02-04T11:35:09.010Z,9.85
2019-02-04T11:37:57.174Z,9.45
2019-02-04T11:40:45.994Z,10.38
2019-02-04T11:43:35.287Z,8.18
2019-02-04T11:46:23.481Z,8.40
2019-02-04T11:49:11.693Z,8.90
2019-02-04T11:51:59.819Z,10.08
2019-02-04T11:54:47.948Z,10.13
2019-02-04T11:57:36.060Z,9.35
2019-02-04T12:00:17.126Z,8.55
2019-02-04T12:02:57.845Z,8.50
2019-02-04T12:05:38.424Z,6.92
2019-02-04T12:08:19.321Z,6.72
2019-02-04T12:10:59.965Z,6.70
2019-02-04T12:13:40.666Z,7.05
2019-02-04T12:16:21.414Z,7.33
2019-02-04T12:21:48.286Z,7.40
2019-02-04T12:24:29.213Z,6.73
2019-02-04T12:27:09.810Z,7.83
2019-02-04T12:29:50.450Z,7.57
2019-02-04T12:32:30.965Z,6.80
2019-02-04T12:35:11.941Z,6.57
2019-02-04T12:37:52.594Z,6.73
2019-02-04T12:40:33.107Z,6.80
2019-02-04T12:43:14.212Z,6.93
2019-02-04T12:45:54.870Z,6.83
2019-02-04T12:48:35.600Z,6.57
2019-02-04T12:51:16.315Z,5.60
2019-02-04T12:53:56.925Z,6.45
2019-02-04T12:56:37.462Z,6.37
2019-02-04T12:59:18.014Z,6.62
2019-02-04T13:04:47.805Z,7.22
2019-02-04T13:07:29.062Z,6.53
2019-02-04T13:10:09.822Z,7.78
2019-02-04T13:12:50.539Z,6.62
2019-02-04T13:15:31.024Z,6.90
2019-02-04T13:18:11.686Z,7.40
2019-02-04T13:20:52.700Z,6.62
2019-02-04T13:23:33.528Z,7.35
2019-02-04T13:26:14.354Z,8.08
2019-02-04T13:28:55.070Z,8.03
2019-02-04T13:31:35.945Z,7.25
2019-02-04T13:34:16.837Z,6.85
2019-02-04T13:36:57.617Z,7.22
2019-02-04T13:39:38.717Z,8.40
2019-02-04T13:42:19.377Z,8.48
2019-02-04T13:45:00.400Z,9.30
2019-02-04T13:47:41.033Z,7.50
2019-02-04T13:50:21.816Z,7.75
2019-02-04T13:53:02.572Z,7.42
2019-02-04T13:55:43.128Z,6.90
2019-02-04T13:58:23.805Z,6.92
2019-02-04T14:01:04.761Z,8.35
2019-02-04T14:03:48.317Z,7.15
2019-02-04T14:06:26.272Z,7.85
2019-02-04T14:09:33.521Z,7.85
2019-02-04T14:12:21.638Z,8.20
2019-02-04T14:15:10.187Z,8.75
2019-02-04T14:17:58.324Z,8.98
2019-02-04T14:20:46.455Z,8.70
2019-02-04T14:23:34.565Z,8.70
2019-02-04T14:26:22.690Z,8.83
2019-02-04T14:29:11.033Z,8.07
2019-02-04T14:32:11.512Z,9.03
2019-02-04T14:34:59.626Z,9.63
2019-02-04T14:37:48.168Z,8.70
2019-02-04T14:40:19.005Z,9.97
2019-02-04T14:43:26.440Z,10.07
2019-02-04T14:46:17.081Z,8.77
2019-02-04T14:49:24.297Z,10.17
2019-02-04T14:52:31.726Z,11.17
2019-02-04T14:55:38.942Z,10.70
2019-02-04T14:58:46.181Z,9.67
2019-02-04T15:01:42.373Z,9.57
2019-02-04T15:04:49.588Z,10.53
2019-02-04T15:07:56.818Z,8.40
2019-02-04T15:11:04.320Z,9.07
2019-02-04T15:14:11.529Z,9.20
2019-02-04T15:17:18.749Z,8.77
2019-02-04T15:20:25.974Z,8.97
2019-02-04T15:23:33.205Z,10.87
2019-02-04T15:26:40.450Z,10.07
2019-02-04T15:29:46.789Z,9.63
2019-02-04T15:32:49.781Z,9.27
2019-02-04T15:35:56.997Z,9.57
2019-02-04T15:38:48.861Z,10.17
2019-02-04T15:41:57.862Z,11.50
2019-02-04T15:45:05.077Z,11.03
2019-02-04T15:47:55.321Z,10.87
2019-02-04T15:51:04.281Z,12.97
2019-02-04T15:53:52.717Z,12.33
2019-02-04T15:56:40.845Z,13.23
2019-02-04T15:59:21.969Z,13.57
2019-02-04T16:02:02.922Z,14.13
2019-02-04T16:04:43.901Z,15.10
2019-02-04T16:07:24.651Z,14.77
2019-02-04T16:10:05.554Z,13.87
2019-02-04T16:15:32.506Z,16.03
2019-02-04T16:21:06.560Z,16.50
2019-02-04T16:23:47.369Z,15.47
2019-02-04T16:26:28.026Z,15.87
2019-02-04T16:29:08.976Z,15.67
2019-02-04T16:31:49.609Z,15.33
2019-02-04T16:34:30.241Z,15.27
2019-02-04T16:37:11.205Z,16.70
2019-02-04T16:39:51.893Z,15.97
2019-02-04T16:42:31.177Z,19.10
2019-02-04T16:45:19.937Z,16.77
2019-02-04T16:48:10.147Z,15.80
2019-02-04T16:51:10.932Z,15.03
2019-02-04T16:53:48.181Z,22.87
2019-02-04T16:56:36.313Z,21.93
2019-02-04T16:59:17.282Z,27.33
2019-02-04T17:01:57.986Z,19.13
2019-02-04T17:04:38.556Z,29.23
2019-02-04T17:07:19.110Z,19.57
2019-02-04T17:09:48.044Z,23.33
2019-02-04T17:12:36.389Z,22.10
2019-02-04T17:15:25.837Z,20.40
2019-02-04T17:18:14.870Z,24.57
2019-02-04T17:21:03.014Z,17.67
2019-02-04T17:23:51.054Z,19.77
2019-02-04T17:26:39.189Z,26.57
2019-02-04T17:29:27.357Z,17.60
2019-02-04T17:32:15.506Z,16.33
2019-02-04T17:35:03.629Z,15.63
2019-02-04T17:37:51.697Z,17.63
2019-02-04T17:40:39.817Z,18.07
2019-02-04T17:43:27.941Z,15.87
2019-02-04T17:46:16.077Z,17.27
2019-02-04T17:49:04.886Z,16.87
2019-02-04T17:51:53.058Z,18.63
2019-02-04T17:54:41.210Z,17.03
2019-02-04T17:57:29.345Z,19.37
2019-02-04T18:00:14.274Z,20.13
2019-02-04T18:02:55.023Z,20.27
2019-02-04T18:05:35.406Z,23.47
2019-02-04T18:08:16.232Z,18.63
2019-02-04T18:10:58.241Z,18.77
2019-02-04T18:13:39.014Z,18.07
2019-02-04T18:16:19.765Z,18.87
2019-02-04T18:19:00.729Z,22.80
2019-02-04T18:21:41.591Z,19.77
2019-02-04T18:27:05.287Z,24.30
2019-02-04T18:29:46.485Z,23.70
2019-02-04T18:32:27.178Z,21.43
2019-02-04T18:35:08.400Z,17.67
2019-02-04T18:37:52.374Z,19.87
2019-02-04T18:40:33.642Z,19.93
2019-02-04T18:43:14.537Z,18.43
2019-02-04T18:45:54.884Z,18.03
2019-02-04T18:48:35.723Z,20.37
2019-02-04T18:51:16.778Z,16.57
2019-02-04T18:53:57.190Z,15.90
2019-02-04T18:56:16.754Z,18.97
2019-02-04T18:58:57.568Z,18.90
2019-02-04T19:01:38.154Z,17.80
2019-02-04T19:04:19.042Z,21.27
2019-02-04T19:07:00.113Z,14.73
2019-02-04T19:09:29.198Z,19.30
2019-02-04T19:12:18.210Z,21.97
2019-02-04T19:15:08.093Z,23.17
2019-02-04T19:17:57.338Z,19.20
2019-02-04T19:20:45.464Z,16.13
2019-02-04T19:23:33.593Z,17.40
2019-02-04T19:26:23.668Z,18.23
2019-02-04T19:29:11.794Z,20.73
2019-02-04T19:32:02.809Z,17.53
2019-02-04T19:34:50.005Z,18.93
2019-02-04T19:37:38.140Z,26.03
2019-02-04T19:40:26.265Z,20.80
2019-02-04T19:43:14.403Z,15.60
2019-02-04T19:46:02.520Z,18.10
2019-02-04T19:48:50.657Z,17.43
2019-02-04T19:51:40.493Z,18.23
2019-02-04T19:54:28.625Z,15.93
2019-02-04T19:57:17.013Z,14.80
2019-02-04T19:59:57.660Z,17.53
2019-02-04T20:02:38.358Z,14.60
2019-02-04T20:05:19.772Z,15.07
2019-02-04T20:08:00.536Z,20.47
2019-02-04T20:10:40.916Z,23.97
2019-02-04T20:13:22.482Z,30.83
2019-02-04T20:16:03.218Z,28.23
2019-02-04T20:18:43.797Z,25.73
2019-02-04T20:21:24.753Z,17.30
2019-02-04T20:24:05.409Z,16.80
2019-02-04T20:26:46.049Z,16.97
2019-02-04T20:29:26.839Z,16.63
2019-02-04T20:32:07.317Z,16.03
2019-02-04T20:34:48.262Z,15.07
2019-02-04T20:37:29.456Z,15.90
2019-02-04T20:40:09.801Z,17.73
2019-02-04T20:45:37.169Z,15.17
2019-02-04T20:48:17.753Z,16.27
2019-02-04T20:51:00.243Z,17.20
2019-02-04T20:53:41.622Z,16.70
2019-02-04T20:56:20.858Z,18.00
2019-02-04T20:59:01.788Z,16.93
2019-02-04T21:04:45.026Z,19.07
2019-02-04T21:07:26.601Z,16.93
2019-02-04T21:10:07.787Z,19.20
2019-02-04T21:12:49.041Z,17.80
2019-02-04T21:15:29.729Z,18.20
2019-02-04T21:18:10.160Z,14.73
2019-02-04T21:20:50.639Z,16.20
2019-02-04T21:23:31.599Z,16.60
2019-02-04T21:26:12.391Z,15.60
2019-02-04T21:28:53.201Z,16.83
2019-02-04T21:31:33.728Z,16.57
2019-02-04T21:34:15.187Z,16.40
2019-02-04T21:36:59.116Z,15.67
2019-02-04T21:39:40.820Z,15.40
2019-02-04T21:42:21.780Z,15.53
2019-02-04T21:45:06.990Z,14.50
2019-02-04T21:47:51.556Z,15.33
2019-02-04T21:50:33.397Z,17.73
2019-02-04T21:53:15.009Z,16.50
2019-02-04T21:55:57.086Z,17.40
2019-02-04T21:58:43.769Z,18.63
2019-02-04T22:01:29.882Z,18.30
2019-02-04T22:04:11.954Z,15.37
2019-02-04T22:06:54.206Z,18.13
2019-02-04T22:09:36.796Z,17.10
2019-02-04T22:12:22.262Z,16.33
2019-02-04T22:15:07.215Z,18.13
2019-02-04T22:17:49.551Z,17.37
2019-02-04T22:20:21.260Z,16.87
2019-02-04T22:23:10.923Z,16.47
2019-02-04T22:26:01.022Z,16.80
2019-02-04T22:28:51.220Z,16.60
2019-02-04T22:31:56.547Z,17.40
2019-02-04T22:34:36.541Z,15.47
2019-02-04T22:37:25.977Z,15.13
2019-02-04T22:40:18.877Z,15.40
2019-02-04T22:46:05.491Z,15.53
2019-02-04T22:48:57.239Z,14.93
2019-02-04T22:51:45.968Z,17.47
2019-02-04T22:57:44.249Z,16.07
2019-02-04T23:00:27.407Z,17.37
2019-02-04T23:03:08.746Z,17.53
2019-02-04T23:08:25.073Z,17.27
2019-02-04T23:11:13.999Z,16.33
2019-02-04T23:17:11.196Z,16.70
2019-02-04T23:20:00.364Z,16.53
2019-02-04T23:22:51.245Z,17.07
2019-02-04T23:29:11.215Z,17.93
2019-02-04T23:31:59.401Z,19.57
2019-02-04T23:34:47.766Z,19.00
2019-02-04T23:37:36.173Z,20.07
2019-02-04T23:40:24.302Z,19.40
2019-02-04T23:43:12.468Z,20.57
2019-02-04T23:46:02.337Z,18.53
2019-02-04T23:48:50.528Z,18.40
2019-02-04T23:51:38.649Z,19.23
2019-02-04T23:54:26.821Z,19.87
2019-02-04T23:57:14.975Z,19.00
2019-02-04T23:59:55.985Z,18.17
